createdAt,value
2023-02-27T00:00:15.043Z,6.03
2023-02-27T00:03:20.558Z,7.37
2023-02-27T00:06:24.159Z,6.10
2023-02-27T00:09:28.390Z,7.03
2023-02-27T00:12:37.642Z,6.27
2023-02-27T00:15:41.263Z,6.17
2023-02-27T00:18:46.161Z,5.63
2023-02-27T00:21:49.700Z,6.83
2023-02-27T00:24:53.159Z,6.50
2023-02-27T00:27:56.956Z,5.43
2023-02-27T00:31:00.503Z,5.67
2023-02-27T00:34:05.528Z,5.33
2023-02-27T00:37:09.161Z,7.43
2023-02-27T00:40:14.281Z,6.47
2023-02-27T00:43:17.736Z,7.43
2023-02-27T00:46:21.322Z,5.97
2023-02-27T00:49:26.476Z,6.43
2023-02-27T00:52:30.200Z,4.53
2023-02-27T00:55:33.729Z,3.63
2023-02-27T00:58:37.316Z,4.13
2023-02-27T01:01:40.801Z,7.20
2023-02-27T01:04:45.811Z,5.93
2023-02-27T01:07:49.313Z,5.53
2023-02-27T01:10:54.853Z,5.17
2023-02-27T01:13:58.401Z,5.27
2023-02-27T01:17:02.102Z,5.23
2023-02-27T01:20:09.888Z,8.53
2023-02-27T01:23:13.374Z,4.53
2023-02-27T01:26:16.907Z,5.00
2023-02-27T01:29:20.755Z,4.70
2023-02-27T01:32:24.383Z,7.07
2023-02-27T01:35:29.417Z,5.47
2023-02-27T01:38:33.278Z,6.33
2023-02-27T01:41:36.919Z,4.70
2023-02-27T01:45:36.418Z,6.63
2023-02-27T01:48:41.033Z,4.57
2023-02-27T01:51:51.966Z,6.63
2023-02-27T01:54:57.009Z,5.40
2023-02-27T01:58:02.294Z,5.43
2023-02-27T02:01:06.248Z,7.47
2023-02-27T02:04:19.755Z,8.10
2023-02-27T02:07:25.552Z,4.43
2023-02-27T02:10:30.590Z,5.30
2023-02-27T02:13:35.690Z,6.50
2023-02-27T02:17:06.002Z,5.73
2023-02-27T02:21:17.694Z,4.80
2023-02-27T02:28:37.304Z,5.40
2023-02-27T02:32:22.350Z,6.27
2023-02-27T02:36:32.570Z,6.83
2023-02-27T02:40:19.725Z,8.43
2023-02-27T02:43:32.487Z,6.70
2023-02-27T02:46:49.180Z,6.07
2023-02-27T02:50:00.955Z,5.00
2023-02-27T02:53:17.353Z,5.73
2023-02-27T02:56:30.613Z,6.00
2023-02-27T02:59:40.113Z,6.73
2023-02-27T03:02:50.349Z,6.40
2023-02-27T03:06:02.187Z,6.10
2023-02-27T03:09:15.631Z,5.87
2023-02-27T03:12:27.018Z,7.23
2023-02-27T03:15:39.788Z,6.97
2023-02-27T03:18:51.616Z,5.63
2023-02-27T03:22:03.905Z,6.80
2023-02-27T03:25:13.437Z,7.67
2023-02-27T03:28:23.776Z,6.23
2023-02-27T03:31:35.206Z,5.90
2023-02-27T03:34:43.787Z,6.77
2023-02-27T03:37:59.698Z,5.50
2023-02-27T03:41:16.073Z,6.00
2023-02-27T03:44:31.310Z,8.13
2023-02-27T03:47:36.492Z,6.60
2023-02-27T03:50:40.406Z,6.00
2023-02-27T03:53:53.380Z,4.83
2023-02-27T03:57:02.618Z,7.07
2023-02-27T04:00:15.257Z,6.77
2023-02-27T04:03:19.409Z,9.03
2023-02-27T04:06:40.771Z,5.63
2023-02-27T04:10:17.659Z,7.53
2023-02-27T04:13:55.870Z,5.97
2023-02-27T04:17:19.370Z,7.37
2023-02-27T04:20:44.441Z,7.90
2023-02-27T04:23:58.623Z,5.67
2023-02-27T04:27:14.249Z,6.53
2023-02-27T04:30:31.453Z,8.23
2023-02-27T04:33:46.962Z,6.13
2023-02-27T04:37:01.454Z,7.07
2023-02-27T04:40:12.041Z,8.83
2023-02-27T04:43:17.499Z,5.77
2023-02-27T04:46:27.659Z,8.37
2023-02-27T04:49:37.659Z,10.47
2023-02-27T04:52:47.840Z,8.27
2023-02-27T04:55:56.184Z,7.27
2023-02-27T04:59:05.611Z,8.27
2023-02-27T05:02:16.043Z,6.00
2023-02-27T05:05:28.439Z,6.53
2023-02-27T05:08:42.221Z,6.63
2023-02-27T05:11:56.038Z,5.43
2023-02-27T05:15:07.225Z,6.87
2023-02-27T05:18:15.435Z,6.90
2023-02-27T05:21:29.451Z,7.27
2023-02-27T05:24:46.934Z,8.90
2023-02-27T05:27:58.144Z,6.73
2023-02-27T05:31:11.128Z,6.57
2023-02-27T05:34:24.829Z,4.73
2023-02-27T05:37:36.240Z,6.10
2023-02-27T05:40:46.422Z,5.60
2023-02-27T05:43:55.616Z,8.00
2023-02-27T05:47:05.779Z,7.20
2023-02-27T05:50:17.525Z,9.37
2023-02-27T05:53:31.137Z,7.60
2023-02-27T05:56:38.325Z,8.20
2023-02-27T05:59:52.145Z,8.77
2023-02-27T06:02:55.908Z,10.07
2023-02-27T06:06:03.772Z,9.43
2023-02-27T06:09:09.617Z,9.30
2023-02-27T06:12:13.273Z,10.50
2023-02-27T06:15:17.475Z,8.00
2023-02-27T06:18:21.889Z,8.33
2023-02-27T06:21:25.581Z,7.00
2023-02-27T06:24:30.605Z,6.73
2023-02-27T06:27:34.177Z,9.77
2023-02-27T06:30:38.338Z,7.77
2023-02-27T06:33:42.003Z,10.17
2023-02-27T06:36:45.713Z,11.07
2023-02-27T06:39:50.725Z,8.27
2023-02-27T06:42:54.671Z,9.90
2023-02-27T06:45:58.535Z,9.07
2023-02-27T06:49:02.310Z,9.03
2023-02-27T06:52:06.124Z,11.03
2023-02-27T06:55:12.999Z,10.07
2023-02-27T06:58:17.046Z,9.00
2023-02-27T07:01:20.706Z,11.33
2023-02-27T07:04:24.368Z,9.10
2023-02-27T07:07:35.534Z,9.13
2023-02-27T07:10:44.071Z,9.53
2023-02-27T07:13:47.656Z,12.37
2023-02-27T07:16:55.082Z,10.87
2023-02-27T07:19:58.966Z,12.33
2023-02-27T07:23:02.634Z,9.97
2023-02-27T07:26:07.861Z,13.67
2023-02-27T07:29:11.963Z,10.33
2023-02-27T07:32:15.844Z,11.67
2023-02-27T07:35:19.918Z,10.43
2023-02-27T07:38:24.149Z,12.83
2023-02-27T07:41:30.948Z,12.57
2023-02-27T07:44:34.904Z,11.00
2023-02-27T07:47:38.560Z,11.33
2023-02-27T07:50:42.178Z,14.43
2023-02-27T07:53:45.930Z,9.23
2023-02-27T07:56:51.031Z,12.53
2023-02-27T07:59:54.750Z,12.03
2023-02-27T08:02:58.595Z,12.83
2023-02-27T08:06:02.597Z,14.50
2023-02-27T08:09:07.304Z,14.40
2023-02-27T08:12:13.061Z,10.47
2023-02-27T08:15:17.710Z,8.87
2023-02-27T08:18:21.384Z,9.20
2023-02-27T08:21:25.340Z,9.07
2023-02-27T08:24:29.300Z,9.83
2023-02-27T08:27:34.419Z,12.63
2023-02-27T08:30:38.144Z,7.40
2023-02-27T08:33:41.964Z,8.47
2023-02-27T08:36:45.649Z,12.90
2023-02-27T08:39:49.375Z,12.80
2023-02-27T08:42:54.433Z,7.67
2023-02-27T08:45:58.146Z,9.53
2023-02-27T08:49:01.864Z,13.57
2023-02-27T08:52:05.659Z,8.13
2023-02-27T08:55:10.751Z,8.53
2023-02-27T08:58:17.190Z,9.73
2023-02-27T09:01:22.069Z,8.40
2023-02-27T09:04:26.374Z,10.07
2023-02-27T09:07:30.024Z,8.80
2023-02-27T09:10:34.030Z,8.10
2023-02-27T09:13:39.045Z,7.23
2023-02-27T09:16:42.907Z,8.93
2023-02-27T09:19:46.517Z,7.63
2023-02-27T09:22:50.214Z,7.30
2023-02-27T09:25:54.010Z,7.53
2023-02-27T09:28:59.088Z,11.37
2023-02-27T09:32:03.204Z,6.73
2023-02-27T09:35:09.571Z,6.40
2023-02-27T09:38:13.799Z,8.57
2023-02-27T09:41:43.457Z,8.67
2023-02-27T09:44:52.268Z,7.53
2023-02-27T09:48:02.187Z,6.23
2023-02-27T09:51:06.710Z,7.83
2023-02-27T09:54:13.601Z,6.67
2023-02-27T09:57:24.082Z,6.23
2023-02-27T10:00:48.805Z,6.03
2023-02-27T10:04:28.567Z,5.77
2023-02-27T10:07:41.671Z,9.20
2023-02-27T10:11:00.370Z,5.83
2023-02-27T10:14:25.160Z,7.20
2023-02-27T10:17:35.674Z,4.57
2023-02-27T10:20:47.831Z,7.27
2023-02-27T10:23:59.073Z,6.33
2023-02-27T10:27:07.786Z,5.80
2023-02-27T10:30:30.423Z,4.83
2023-02-27T10:33:40.621Z,6.33
2023-02-27T10:36:46.797Z,7.73
2023-02-27T10:39:57.814Z,6.10
2023-02-27T10:43:06.333Z,5.57
2023-02-27T10:46:17.590Z,2.80
2023-02-27T10:49:23.469Z,4.40
2023-02-27T10:52:27.712Z,8.67
2023-02-27T10:55:34.041Z,7.97
2023-02-27T10:58:39.292Z,7.63
2023-02-27T11:01:46.178Z,3.03
2023-02-27T11:04:56.179Z,3.80
2023-02-27T11:08:21.743Z,3.30
2023-02-27T11:11:30.057Z,3.07
2023-02-27T11:14:34.958Z,5.60
2023-02-27T11:17:38.687Z,4.27
2023-02-27T11:20:44.228Z,5.43
2023-02-27T11:24:01.078Z,5.60
2023-02-27T11:27:20.878Z,5.07
2023-02-27T11:30:28.555Z,2.20
2023-02-27T11:33:39.965Z,4.23
2023-02-27T11:36:48.620Z,3.43
2023-02-27T11:39:58.645Z,2.73
2023-02-27T11:43:08.718Z,4.20
2023-02-27T11:46:47.328Z,4.57
2023-02-27T11:50:32.887Z,2.40
2023-02-27T11:54:07.292Z,2.03
2023-02-27T11:57:26.634Z,7.17
2023-02-27T12:00:40.860Z,3.10
2023-02-27T12:03:57.548Z,5.83
2023-02-27T12:07:11.884Z,3.23
2023-02-27T12:10:22.918Z,5.47
2023-02-27T12:13:32.418Z,3.40
2023-02-27T12:16:42.846Z,1.80
2023-02-27T12:20:01.927Z,2.93
2023-02-27T12:23:20.584Z,3.97
2023-02-27T12:26:33.322Z,2.97
2023-02-27T12:29:45.124Z,2.03
2023-02-27T12:32:58.115Z,1.40
2023-02-27T12:36:05.742Z,1.00
2023-02-27T12:39:20.694Z,2.10
2023-02-27T12:42:56.713Z,2.37
2023-02-27T12:46:36.953Z,1.97
2023-02-27T12:49:53.189Z,4.13
2023-02-27T12:53:16.828Z,3.07
2023-02-27T12:56:24.264Z,1.80
2023-02-27T12:59:47.310Z,2.83
2023-02-27T13:03:06.388Z,2.77
2023-02-27T13:06:21.954Z,3.37
2023-02-27T13:09:38.265Z,2.63
2023-02-27T13:12:49.163Z,3.00
2023-02-27T13:16:00.857Z,1.50
2023-02-27T13:19:15.456Z,3.17
2023-02-27T13:22:33.932Z,2.23
2023-02-27T13:25:43.289Z,2.53
2023-02-27T13:28:47.986Z,3.20
2023-02-27T13:32:02.650Z,5.83
2023-02-27T13:35:24.913Z,2.13
2023-02-27T13:38:41.976Z,3.97
2023-02-27T13:41:45.653Z,4.73
2023-02-27T13:44:50.360Z,2.63
2023-02-27T13:47:56.904Z,5.03
2023-02-27T13:51:01.791Z,3.70
2023-02-27T13:54:20.939Z,3.70
2023-02-27T13:57:27.819Z,1.83
2023-02-27T14:00:34.628Z,4.17
2023-02-27T14:03:42.178Z,5.17
2023-02-27T14:06:49.061Z,4.10
2023-02-27T14:10:03.696Z,3.13
2023-02-27T14:13:46.941Z,1.73
2023-02-27T14:17:03.573Z,2.40
2023-02-27T14:20:14.125Z,6.67
2023-02-27T14:23:25.877Z,4.23
2023-02-27T14:26:29.840Z,2.13
2023-02-27T14:29:36.264Z,6.17
2023-02-27T14:32:41.514Z,3.70
2023-02-27T14:35:48.585Z,1.87
2023-02-27T14:38:57.794Z,3.40
2023-02-27T14:42:27.511Z,3.03
2023-02-27T14:45:32.180Z,3.90
2023-02-27T14:48:38.295Z,5.87
2023-02-27T14:51:41.960Z,3.40
2023-02-27T14:54:45.819Z,3.27
2023-02-27T14:57:57.867Z,2.13
2023-02-27T15:01:07.326Z,2.97
2023-02-27T15:04:21.127Z,5.20
2023-02-27T15:07:27.510Z,2.47
2023-02-27T15:10:33.375Z,2.23
2023-02-27T15:13:40.470Z,1.20
2023-02-27T15:16:44.167Z,1.53
2023-02-27T15:19:52.392Z,4.87
2023-02-27T15:22:56.231Z,2.63
2023-02-27T15:26:01.526Z,2.77
2023-02-27T15:29:07.700Z,2.77
2023-02-27T15:32:22.400Z,3.27
2023-02-27T15:35:36.906Z,4.53
2023-02-27T15:38:40.563Z,2.63
2023-02-27T15:41:48.591Z,5.97
2023-02-27T15:44:53.585Z,6.90
2023-02-27T15:47:57.887Z,2.03
2023-02-27T15:51:05.787Z,2.23
2023-02-27T15:54:12.199Z,2.17
2023-02-27T15:57:16.071Z,4.97
2023-02-27T16:00:23.025Z,5.10
2023-02-27T16:03:30.889Z,8.40
2023-02-27T16:06:40.163Z,3.80
2023-02-27T16:09:47.024Z,3.63
2023-02-27T16:12:52.372Z,4.83
2023-02-27T16:16:05.171Z,5.57
2023-02-27T16:19:27.905Z,4.30
2023-02-27T16:22:32.891Z,4.90
2023-02-27T16:25:37.211Z,4.03
2023-02-27T16:28:51.790Z,7.50
2023-02-27T16:31:58.667Z,2.73
2023-02-27T16:35:06.206Z,4.60
2023-02-27T16:38:13.102Z,2.53
2023-02-27T16:41:20.023Z,2.97
2023-02-27T16:44:24.549Z,2.73
2023-02-27T16:47:29.009Z,5.70
2023-02-27T16:50:40.538Z,4.03
2023-02-27T16:53:48.061Z,4.80
2023-02-27T16:56:52.735Z,3.97
2023-02-27T16:59:57.439Z,2.80
2023-02-27T17:03:01.221Z,5.93
2023-02-27T17:06:05.290Z,5.00
2023-02-27T17:09:12.237Z,5.60
2023-02-27T17:12:15.938Z,3.80
2023-02-27T17:15:20.060Z,5.30
2023-02-27T17:18:23.803Z,5.20
2023-02-27T17:21:27.699Z,6.00
2023-02-27T17:24:32.735Z,3.23
2023-02-27T17:27:36.918Z,4.73
2023-02-27T17:30:42.282Z,5.03
2023-02-27T17:33:45.907Z,8.97
2023-02-27T17:36:51.064Z,4.97
2023-02-27T17:39:56.161Z,4.17
2023-02-27T17:42:59.822Z,4.43
2023-02-27T17:46:06.573Z,3.70
2023-02-27T17:49:10.227Z,5.13
2023-02-27T17:52:13.957Z,4.63
2023-02-27T17:55:19.076Z,4.43
2023-02-27T17:58:22.735Z,6.70
2023-02-27T18:01:27.101Z,8.00
2023-02-27T18:04:30.842Z,3.93
2023-02-27T18:07:34.738Z,6.00
2023-02-27T18:10:39.899Z,7.93
2023-02-27T18:13:44.307Z,9.23
2023-02-27T18:16:48.065Z,7.50
2023-02-27T18:19:51.777Z,6.60
2023-02-27T18:22:55.330Z,4.67
2023-02-27T18:26:01.509Z,3.97
2023-02-27T18:29:08.706Z,8.23
2023-02-27T18:32:12.839Z,6.30
2023-02-27T18:35:17.023Z,7.63
2023-02-27T18:38:20.721Z,5.90
2023-02-27T18:41:25.822Z,8.40
2023-02-27T18:44:29.422Z,8.13
2023-02-27T18:47:33.029Z,10.10
2023-02-27T18:50:36.801Z,5.70
2023-02-27T18:53:43.679Z,7.53
2023-02-27T18:56:51.596Z,9.40
2023-02-27T18:59:55.339Z,8.33
2023-02-27T19:02:59.072Z,13.20
2023-02-27T19:06:02.914Z,11.80
2023-02-27T19:09:07.151Z,7.97
2023-02-27T19:12:12.202Z,9.60
2023-02-27T19:15:23.609Z,9.50
2023-02-27T19:18:27.318Z,11.63
2023-02-27T19:21:31.000Z,13.13
2023-02-27T19:24:34.715Z,10.17
2023-02-27T19:27:40.591Z,14.07
2023-02-27T19:30:44.346Z,15.60
2023-02-27T19:33:48.047Z,11.50
2023-02-27T19:36:51.649Z,18.57
2023-02-27T19:39:55.277Z,26.80
2023-02-27T19:43:00.331Z,25.00
2023-02-27T19:46:06.800Z,18.77
2023-02-27T19:49:12.025Z,19.60
2023-02-27T19:52:15.701Z,12.60
2023-02-27T19:55:19.663Z,14.30
2023-02-27T19:58:24.581Z,11.43
2023-02-27T20:01:32.590Z,10.80
2023-02-27T20:04:36.220Z,13.83
2023-02-27T20:07:40.489Z,9.60
2023-02-27T20:10:44.547Z,12.23
2023-02-27T20:13:50.331Z,15.30
2023-02-27T20:16:54.297Z,8.97
2023-02-27T20:19:57.999Z,16.17
2023-02-27T20:23:01.640Z,7.70
2023-02-27T20:26:16.883Z,8.43
2023-02-27T20:29:24.990Z,11.17
2023-02-27T20:32:28.930Z,10.00
2023-02-27T20:35:32.638Z,10.57
2023-02-27T20:38:39.088Z,8.57
2023-02-27T20:41:42.803Z,10.07
2023-02-27T20:44:50.447Z,12.93
2023-02-27T20:47:54.048Z,6.47
2023-02-27T20:50:57.645Z,8.13
2023-02-27T20:54:01.892Z,6.67
2023-02-27T20:57:05.739Z,11.57
2023-02-27T21:00:13.023Z,9.63
2023-02-27T21:03:16.625Z,8.43
2023-02-27T21:06:20.723Z,9.30
2023-02-27T21:09:24.421Z,8.40
2023-02-27T21:12:28.144Z,9.23
2023-02-27T21:15:36.259Z,7.77
2023-02-27T21:18:40.205Z,6.93
2023-02-27T21:21:43.915Z,7.77
2023-02-27T21:24:53.731Z,7.00
2023-02-27T21:28:02.194Z,9.10
2023-02-27T21:31:08.903Z,11.70
2023-02-27T21:34:17.371Z,12.23
2023-02-27T21:37:20.975Z,6.10
2023-02-27T21:40:24.804Z,7.77
2023-02-27T21:43:28.433Z,11.80
2023-02-27T21:46:34.732Z,9.17
2023-02-27T21:49:39.433Z,5.87
2023-02-27T21:52:43.352Z,7.70
2023-02-27T21:55:47.074Z,6.23
2023-02-27T21:58:51.514Z,10.27
2023-02-27T22:01:56.629Z,5.77
2023-02-27T22:05:00.517Z,5.87
2023-02-27T22:08:04.208Z,8.30
2023-02-27T22:11:09.109Z,9.97
2023-02-27T22:14:13.936Z,9.80
2023-02-27T22:17:18.921Z,9.63
2023-02-27T22:20:22.619Z,9.30
2023-02-27T22:23:27.105Z,11.23
2023-02-27T22:26:30.941Z,11.80
2023-02-27T22:29:34.642Z,8.57
2023-02-27T22:32:42.138Z,7.43
2023-02-27T22:35:45.862Z,7.77
2023-02-27T22:38:50.647Z,8.50
2023-02-27T22:41:56.531Z,6.23
2023-02-27T22:45:00.517Z,8.03
2023-02-27T22:48:06.102Z,9.30
2023-02-27T22:51:12.777Z,8.27
2023-02-27T22:54:18.518Z,8.93
2023-02-27T22:57:22.125Z,7.13
2023-02-27T23:00:26.030Z,7.17
2023-02-27T23:03:31.588Z,10.13
2023-02-27T23:06:39.966Z,9.20
2023-02-27T23:09:43.881Z,10.13
2023-02-27T23:12:47.607Z,8.80
2023-02-27T23:15:51.246Z,9.37
2023-02-27T23:18:59.461Z,7.90
2023-02-27T23:22:03.039Z,10.50
2023-02-27T23:25:09.243Z,13.43
2023-02-27T23:28:13.225Z,11.63
2023-02-27T23:31:16.939Z,10.40
2023-02-27T23:34:21.902Z,11.50
2023-02-27T23:37:25.561Z,11.43
2023-02-27T23:40:29.872Z,8.57
2023-02-27T23:43:33.475Z,12.17
2023-02-27T23:46:37.326Z,10.40
2023-02-27T23:49:42.350Z,10.27
2023-02-27T23:52:45.915Z,10.50
2023-02-27T23:55:49.656Z,9.17
2023-02-27T23:58:57.302Z,8.87
